Mineral, Texas
Current Conditions -  °F | °C
As of 3:15 PM on Saturday 22 Nov 2014 (Local Time) from KBEA Reporting Station
Overcast Overcast  
Wind Chill: 73°   Ceiling: 1400
Heat Index: 73°   Visibility: 10mi
Dew Point: 69°   Wind: 15mph
Humidity: 86%   Direction: 190°S
Pressure: 29.78"   Gusts: 24mph
Location:  28.55°N, 97.9°W
Report Text: KBEA 222115Z AUTO 19013G21KT 10SM BKN014 OVC022 23/21 A2978 RMK AO2 LTG DSNT N T02300205
Loading
Personal Weather Stations






























Interactive Weather Map New forecast layout! Learn more

10-Day Weather Forecast

Advertisements
Track Severe Weather on mobile